Scroll down
FLIGHT INFORMATION
British Airways

BAW461

At Arrival Gate

EGLL
 HECA
DATE: 2021-03-27
GATE: 541
GATE DEPARTURE: 09:41
TAKEOFF: 09:54
DATE: 2021-03-27
GATE:  -
LANDING: 14:07
GATE ARRIVAL: 14:16
FLIGHT DATA
Crew: 
Speed: 
900 kph
Altitude: 
39,034 ft
Stage Length: 
3,534.4 km
Block Time: 
4.5 hrs
Flight Time: 
4.2 hrs
Fuel Used: 
28,007 kg
Cleared Route: EGLL DET DVR KONAN KOK PITES EDISA KUNOD IRBIR UMVEG VEKEN RETRA MAVAR BITLA KPC NIPIS KUMBI LABNA BLT HECA
TRACK DATA
50,000 ft 1,000 kts
AIRCRAFT INFO AND CUMULATIVE STATS
Aircraft Type: 
B772
Registration: 
SELCAL: 
DFHK
MSN/LN: 
30316 / 346
Operator: 
Total Flights: 
1
Total Block Time: 
4.5 hrs
Total Flight Time: 
4.2 hrs
Total Fuel Used: 
28,007 kg
DATALINK LOG | Newest first | Current as of: 2022-08-16 01:54:45
LABEL SEQUENCE CONTENT Dn/Up
QD593514:16 20.4▼ Dn
QC502714:07▼ Dn
2U0654HECA 251400Z 28012KT 9999 SCT025 20/03 Q1014 NOSIG▲ Up
2S4829HECA▼ Dn
QB364309:54▼ Dn
QA233309:41 82.3▼ Dn
A31436CLEARED TO HECA VIA DET2F DET DVR UL9 KONAN UL607 KOK PITES EDISA KUNOD IRBIR UMVEG VEKEN RETRA MAVAR BITLA KPC UN139 KUMBI L612 BLT. SQUAWK 5766.▲ Up
B31426EGLL HECA P ▼ Dn
Q01224[LINK ACK]▲ Up
Q01224[LINK TEST]▼ Dn


AIRCRAFT HISTORY
FLIGHT DATE FLIGHT NO. ORIGIN DESTINATION CLEARED ROUTE BLOCK TIME FLIGHT TIME FUEL USED PILOT
2021-03-27BAW461EGLL HECA EGLL DET DVR KONAN KOK PITES EDISA KUNOD IRBIR UMVEG VEKEN RETRA MAVAR BITLA KPC NIPIS KUMBI LABNA BLT HECA4.5 hrs4.2 hrs61,744 lbMike Dryden